createdAt,value
2022-08-28T00:00:52.739Z,100.00
2022-08-28T00:01:55.126Z,100.00
2022-08-28T00:02:57.312Z,100.00
2022-08-28T00:04:00.386Z,100.00
2022-08-28T00:05:02.155Z,100.00
2022-08-28T00:06:04.144Z,100.00
2022-08-28T00:07:06.000Z,100.00
2022-08-28T00:08:10.702Z,100.00
2022-08-28T00:09:12.536Z,100.00
2022-08-28T00:10:16.788Z,100.00
2022-08-28T00:11:19.620Z,100.00
2022-08-28T00:12:21.687Z,100.00
2022-08-28T00:13:25.480Z,100.00
2022-08-28T00:14:27.270Z,100.00
2022-08-28T00:15:32.531Z,100.00
2022-08-28T00:16:34.484Z,100.00
2022-08-28T00:17:36.514Z,100.00
2022-08-28T00:18:39.434Z,100.00
2022-08-28T00:19:41.167Z,100.00
2022-08-28T00:20:43.307Z,100.00
2022-08-28T00:21:45.653Z,100.00
2022-08-28T00:22:48.654Z,100.00
2022-08-28T00:23:50.400Z,100.00
2022-08-28T00:24:52.010Z,100.00
2022-08-28T00:25:57.225Z,100.00
2022-08-28T00:27:17.477Z,100.00
2022-08-28T00:28:23.735Z,100.00
2022-08-28T00:29:26.124Z,100.00
2022-08-28T00:30:40.362Z,100.00
2022-08-28T00:31:41.904Z,100.00
2022-08-28T00:32:43.451Z,100.00
2022-08-28T00:33:46.126Z,100.00
2022-08-28T00:34:51.832Z,100.00
2022-08-28T00:35:54.972Z,100.00
2022-08-28T00:36:56.808Z,100.00
2022-08-28T00:37:58.538Z,100.00
2022-08-28T00:39:00.773Z,100.00
2022-08-28T00:40:02.615Z,100.00
2022-08-28T00:41:05.384Z,100.00
2022-08-28T00:42:07.038Z,100.00
2022-08-28T00:43:09.818Z,100.00
2022-08-28T00:44:13.700Z,100.00
2022-08-28T00:45:18.125Z,100.00
2022-08-28T00:46:22.905Z,100.00
2022-08-28T00:47:26.455Z,100.00
2022-08-28T00:48:28.416Z,100.00
2022-08-28T00:49:33.691Z,100.00
2022-08-28T00:50:54.558Z,100.00
2022-08-28T00:52:05.811Z,100.00
2022-08-28T00:53:07.387Z,100.00
2022-08-28T00:54:09.801Z,100.00
2022-08-28T00:55:15.784Z,100.00
2022-08-28T00:56:19.041Z,100.00
2022-08-28T00:57:49.299Z,100.00
2022-08-28T00:58:52.503Z,100.00
2022-08-28T00:59:54.316Z,100.00
2022-08-28T01:00:56.040Z,100.00
2022-08-28T01:01:58.994Z,100.00
2022-08-28T01:03:05.103Z,100.00
2022-08-28T01:04:07.799Z,100.00
2022-08-28T01:05:09.983Z,100.00
2022-08-28T01:06:14.571Z,100.00
2022-08-28T01:07:17.194Z,100.00
2022-08-28T01:08:18.929Z,100.00
2022-08-28T01:09:22.069Z,100.00
2022-08-28T01:10:25.893Z,100.00
2022-08-28T01:11:29.332Z,100.00
2022-08-28T01:12:33.276Z,100.00
2022-08-28T01:13:36.726Z,100.00
2022-08-28T01:14:41.555Z,100.00
2022-08-28T01:15:43.468Z,100.00
2022-08-28T01:16:46.206Z,100.00
2022-08-28T01:17:51.905Z,100.00
2022-08-28T01:18:57.744Z,100.00
2022-08-28T01:20:09.176Z,100.00
2022-08-28T01:21:20.515Z,100.00
2022-08-28T01:22:38.914Z,100.00
2022-08-28T01:23:58.070Z,100.00
2022-08-28T01:25:03.308Z,100.00
2022-08-28T01:26:05.448Z,100.00
2022-08-28T01:27:12.883Z,100.00
2022-08-28T01:28:15.470Z,100.00
2022-08-28T01:29:17.706Z,100.00
2022-08-28T01:30:21.596Z,100.00
2022-08-28T01:31:23.254Z,100.00
2022-08-28T01:32:32.091Z,100.00
2022-08-28T01:33:33.894Z,100.00
2022-08-28T01:34:35.765Z,100.00
2022-08-28T01:35:42.499Z,100.00
2022-08-28T01:36:44.327Z,100.00
2022-08-28T01:37:47.298Z,100.00
2022-08-28T01:38:55.537Z,100.00
2022-08-28T01:39:57.437Z,100.00
2022-08-28T01:40:59.378Z,100.00
2022-08-28T01:42:02.494Z,100.00
2022-08-28T01:43:17.030Z,100.00
2022-08-28T01:44:24.359Z,100.00
2022-08-28T01:45:26.270Z,100.00
2022-08-28T01:46:31.636Z,100.00
2022-08-28T01:47:33.431Z,100.00
2022-08-28T01:48:38.526Z,100.00
2022-08-28T01:49:40.342Z,100.00
2022-08-28T01:50:43.075Z,100.00
2022-08-28T01:51:44.951Z,100.00
2022-08-28T01:52:46.510Z,100.00
2022-08-28T01:53:48.200Z,100.00
2022-08-28T01:54:50.235Z,100.00
2022-08-28T01:55:56.012Z,100.00
2022-08-28T01:56:58.007Z,100.00
2022-08-28T01:57:59.681Z,100.00
2022-08-28T01:59:04.550Z,100.00
2022-08-28T02:00:06.822Z,100.00
2022-08-28T02:01:18.402Z,100.00
2022-08-28T02:02:21.322Z,100.00
2022-08-28T02:03:23.597Z,100.00
2022-08-28T02:04:27.561Z,100.00
2022-08-28T02:05:34.349Z,100.00
2022-08-28T02:06:36.537Z,100.00
2022-08-28T02:07:38.444Z,100.00
2022-08-28T02:08:40.391Z,100.00
2022-08-28T02:09:41.933Z,100.00
2022-08-28T02:10:43.881Z,100.00
2022-08-28T02:11:46.786Z,100.00
2022-08-28T02:12:49.284Z,100.00
2022-08-28T02:13:52.815Z,100.00
2022-08-28T02:14:56.001Z,100.00
2022-08-28T02:15:57.863Z,100.00
2022-08-28T02:16:59.482Z,100.00
2022-08-28T02:18:01.964Z,100.00
2022-08-28T02:19:03.696Z,100.00
2022-08-28T02:20:06.664Z,100.00
2022-08-28T02:21:09.872Z,100.00
2022-08-28T02:22:13.396Z,100.00
2022-08-28T02:23:14.995Z,100.00
2022-08-28T02:24:17.108Z,100.00
2022-08-28T02:25:18.954Z,100.00
2022-08-28T02:26:23.658Z,100.00
2022-08-28T02:27:25.521Z,100.00
2022-08-28T02:28:27.182Z,100.00
2022-08-28T02:29:28.811Z,100.00
2022-08-28T02:30:30.301Z,100.00
2022-08-28T02:31:32.492Z,100.00
2022-08-28T02:32:34.071Z,100.00
2022-08-28T02:33:38.390Z,100.00
2022-08-28T02:34:42.068Z,100.00
2022-08-28T02:35:43.779Z,100.00
2022-08-28T02:36:45.322Z,100.00
2022-08-28T02:37:47.859Z,100.00
2022-08-28T02:38:55.353Z,100.00
2022-08-28T02:39:59.828Z,100.00
2022-08-28T02:41:01.357Z,100.00
2022-08-28T02:42:06.636Z,100.00
2022-08-28T02:43:08.472Z,100.00
2022-08-28T02:44:10.099Z,100.00
2022-08-28T02:45:13.809Z,100.00
2022-08-28T02:46:16.558Z,100.00
2022-08-28T02:47:18.753Z,100.00
2022-08-28T02:48:20.391Z,100.00
2022-08-28T02:49:23.850Z,100.00
2022-08-28T02:50:25.343Z,100.00
2022-08-28T02:51:30.890Z,100.00
2022-08-28T02:52:32.374Z,100.00
2022-08-28T02:53:35.068Z,100.00
2022-08-28T02:54:39.668Z,100.00
2022-08-28T02:55:41.739Z,100.00
2022-08-28T02:56:43.351Z,100.00
2022-08-28T02:57:45.623Z,100.00
2022-08-28T02:58:47.740Z,100.00
2022-08-28T02:59:49.252Z,100.00
2022-08-28T03:00:51.176Z,100.00
2022-08-28T03:01:52.900Z,100.00
2022-08-28T03:02:54.988Z,100.00
2022-08-28T03:03:56.560Z,100.00
2022-08-28T03:05:00.420Z,100.00
2022-08-28T03:06:02.755Z,100.00
2022-08-28T03:07:07.309Z,100.00
2022-08-28T03:08:08.898Z,100.00
2022-08-28T03:09:10.478Z,100.00
2022-08-28T03:10:12.352Z,100.00
2022-08-28T03:11:13.899Z,100.00
2022-08-28T03:12:16.963Z,100.00
2022-08-28T03:13:26.424Z,100.00
2022-08-28T03:14:29.032Z,100.00
2022-08-28T03:15:30.646Z,100.00
2022-08-28T03:16:32.645Z,100.00
2022-08-28T03:17:36.523Z,100.00
2022-08-28T03:18:38.136Z,100.00
2022-08-28T03:19:39.946Z,100.00
2022-08-28T03:20:42.356Z,100.00
2022-08-28T03:21:44.124Z,100.00
2022-08-28T03:23:04.284Z,100.00
2022-08-28T03:24:05.862Z,100.00
2022-08-28T03:25:07.752Z,100.00
2022-08-28T03:26:15.636Z,100.00
2022-08-28T03:27:17.216Z,100.00
2022-08-28T03:28:18.917Z,100.00
2022-08-28T03:29:20.670Z,100.00
2022-08-28T03:30:23.392Z,100.00
2022-08-28T03:31:27.475Z,100.00
2022-08-28T03:32:29.526Z,100.00
2022-08-28T03:33:31.488Z,100.00
2022-08-28T03:34:33.562Z,100.00
2022-08-28T03:35:35.226Z,100.00
2022-08-28T03:36:36.785Z,100.00
2022-08-28T03:37:38.405Z,100.00
2022-08-28T03:38:41.651Z,100.00
2022-08-28T03:39:43.168Z,100.00
2022-08-28T03:40:46.511Z,100.00
2022-08-28T03:41:47.977Z,100.00
2022-08-28T03:42:53.561Z,100.00
2022-08-28T03:44:00.538Z,100.00
2022-08-28T03:45:02.373Z,100.00
2022-08-28T03:46:05.969Z,100.00
2022-08-28T03:47:08.846Z,100.00
2022-08-28T03:48:10.351Z,100.00
2022-08-28T03:49:11.866Z,100.00
2022-08-28T03:50:14.190Z,100.00
2022-08-28T03:51:29.118Z,100.00
2022-08-28T03:52:31.532Z,100.00
2022-08-28T03:53:33.172Z,100.00
2022-08-28T03:54:35.010Z,100.00
2022-08-28T03:55:36.688Z,100.00
2022-08-28T03:56:41.170Z,100.00
2022-08-28T03:57:42.686Z,100.00
2022-08-28T03:58:44.525Z,100.00
2022-08-28T03:59:48.145Z,100.00
2022-08-28T04:00:51.086Z,100.00
2022-08-28T04:01:52.676Z,100.00
2022-08-28T04:02:54.367Z,100.00
2022-08-28T04:03:56.802Z,100.00
2022-08-28T04:04:58.304Z,100.00
2022-08-28T04:06:00.775Z,100.00
2022-08-28T04:07:02.317Z,100.00
2022-08-28T04:08:04.161Z,100.00
2022-08-28T04:09:06.247Z,100.00
2022-08-28T04:10:08.484Z,100.00
2022-08-28T04:11:10.112Z,100.00
2022-08-28T04:12:11.985Z,100.00
2022-08-28T04:13:15.373Z,100.00
2022-08-28T04:14:16.844Z,100.00
2022-08-28T04:15:18.426Z,100.00
2022-08-28T04:16:20.004Z,100.00
2022-08-28T04:17:21.531Z,100.00
2022-08-28T04:18:23.100Z,100.00
2022-08-28T04:19:26.594Z,100.00
2022-08-28T04:20:28.794Z,100.00
2022-08-28T04:21:31.511Z,100.00
2022-08-28T04:22:33.225Z,100.00
2022-08-28T04:23:36.695Z,100.00
2022-08-28T04:24:38.400Z,100.00
2022-08-28T04:25:40.923Z,100.00
2022-08-28T04:26:42.590Z,100.00
2022-08-28T04:27:44.342Z,100.00
2022-08-28T04:28:46.936Z,100.00
2022-08-28T04:29:49.156Z,100.00
2022-08-28T04:30:55.097Z,100.00
2022-08-28T04:31:58.173Z,100.00
2022-08-28T04:33:00.069Z,100.00
2022-08-28T04:34:03.676Z,100.00
2022-08-28T04:35:07.247Z,100.00
2022-08-28T04:36:11.654Z,100.00
2022-08-28T04:37:13.187Z,100.00
2022-08-28T04:38:15.146Z,100.00
2022-08-28T04:39:17.042Z,100.00
2022-08-28T04:40:19.219Z,100.00
2022-08-28T04:41:20.785Z,100.00
2022-08-28T04:42:22.700Z,100.00
2022-08-28T04:43:24.247Z,100.00
2022-08-28T04:44:26.229Z,100.00
2022-08-28T04:45:29.487Z,100.00
2022-08-28T04:46:32.251Z,100.00
2022-08-28T04:47:38.395Z,100.00
2022-08-28T04:48:41.240Z,100.00
2022-08-28T04:49:44.208Z,100.00
2022-08-28T04:50:48.669Z,100.00
2022-08-28T04:51:50.164Z,100.00
2022-08-28T04:52:52.513Z,100.00
2022-08-28T04:53:54.004Z,100.00
2022-08-28T04:54:55.794Z,100.00
2022-08-28T04:55:58.994Z,100.00
2022-08-28T04:57:01.236Z,100.00
2022-08-28T04:58:02.717Z,100.00
2022-08-28T04:59:04.261Z,100.00
2022-08-28T05:00:07.508Z,100.00
2022-08-28T05:01:19.115Z,100.00
2022-08-28T05:02:20.829Z,100.00
2022-08-28T05:03:23.691Z,100.00
2022-08-28T05:04:26.857Z,100.00
2022-08-28T05:05:28.377Z,100.00
2022-08-28T05:06:32.036Z,100.00
2022-08-28T05:07:34.392Z,100.00
2022-08-28T05:08:36.460Z,100.00
2022-08-28T05:09:38.070Z,100.00
2022-08-28T05:10:40.592Z,100.00
2022-08-28T05:11:42.712Z,100.00
2022-08-28T05:12:44.248Z,100.00
2022-08-28T05:13:46.014Z,100.00
2022-08-28T05:14:48.922Z,100.00
2022-08-28T05:15:52.172Z,100.00
2022-08-28T05:16:55.397Z,100.00
2022-08-28T05:17:56.961Z,100.00
2022-08-28T05:19:02.126Z,100.00
2022-08-28T05:20:05.573Z,100.00
2022-08-28T05:21:15.670Z,100.00
2022-08-28T05:22:17.169Z,100.00
2022-08-28T05:23:18.682Z,100.00
2022-08-28T05:24:23.778Z,100.00
2022-08-28T05:25:25.257Z,100.00
2022-08-28T05:26:29.730Z,100.00
2022-08-28T05:27:31.646Z,100.00
2022-08-28T05:28:33.185Z,100.00
2022-08-28T05:29:35.060Z,100.00
2022-08-28T05:30:38.498Z,100.00
2022-08-28T05:31:41.144Z,100.00
2022-08-28T05:32:43.238Z,100.00
2022-08-28T05:33:47.314Z,100.00
2022-08-28T05:34:48.851Z,100.00
2022-08-28T05:35:50.369Z,100.00
2022-08-28T05:36:51.902Z,100.00
2022-08-28T05:37:53.898Z,100.00
2022-08-28T05:38:57.676Z,100.00
2022-08-28T05:40:00.168Z,100.00
2022-08-28T05:41:03.289Z,100.00
2022-08-28T05:42:05.552Z,100.00
2022-08-28T05:43:07.073Z,100.00
2022-08-28T05:44:11.361Z,100.00
2022-08-28T05:45:13.385Z,100.00
2022-08-28T05:46:16.144Z,100.00
2022-08-28T05:47:18.306Z,100.00
2022-08-28T05:48:23.400Z,100.00
2022-08-28T05:49:25.026Z,100.00
2022-08-28T05:50:26.702Z,100.00
2022-08-28T05:51:28.861Z,100.00
2022-08-28T05:52:30.392Z,100.00
2022-08-28T05:53:32.328Z,100.00
2022-08-28T05:54:34.060Z,100.00
2022-08-28T05:55:40.160Z,100.00
2022-08-28T05:56:43.827Z,100.00
2022-08-28T05:57:45.381Z,100.00
2022-08-28T05:58:46.964Z,100.00
2022-08-28T05:59:49.651Z,100.00
2022-08-28T06:00:51.228Z,100.00
2022-08-28T06:01:52.861Z,100.00
2022-08-28T06:02:54.361Z,100.00
2022-08-28T06:03:59.347Z,100.00
2022-08-28T06:05:01.583Z,100.00
2022-08-28T06:06:04.048Z,100.00
2022-08-28T06:07:06.065Z,100.00
2022-08-28T06:08:08.166Z,100.00
2022-08-28T06:09:14.201Z,100.00
2022-08-28T06:10:15.759Z,100.00
2022-08-28T06:11:21.705Z,100.00
2022-08-28T06:12:26.657Z,100.00
2022-08-28T06:13:30.067Z,100.00
2022-08-28T06:14:32.500Z,100.00
2022-08-28T06:15:34.113Z,100.00
2022-08-28T06:16:39.263Z,100.00
2022-08-28T06:17:40.856Z,100.00
2022-08-28T06:18:42.411Z,100.00
2022-08-28T06:19:43.941Z,100.00
2022-08-28T06:20:47.154Z,100.00
2022-08-28T06:21:52.320Z,100.00
2022-08-28T06:22:53.863Z,100.00
2022-08-28T06:23:56.060Z,100.00
2022-08-28T06:24:57.620Z,100.00
2022-08-28T06:25:59.786Z,100.00
2022-08-28T06:27:01.349Z,100.00
2022-08-28T06:28:03.644Z,100.00
2022-08-28T06:29:08.000Z,100.00
2022-08-28T06:30:10.278Z,100.00
2022-08-28T06:31:23.330Z,100.00
2022-08-28T06:32:26.740Z,100.00
2022-08-28T06:33:28.299Z,100.00
2022-08-28T06:34:30.472Z,100.00
2022-08-28T06:35:32.532Z,100.00
2022-08-28T06:36:37.331Z,100.00
2022-08-28T06:37:38.889Z,100.00
2022-08-28T06:38:40.448Z,100.00
2022-08-28T06:39:41.963Z,100.00
2022-08-28T06:40:46.745Z,100.00
2022-08-28T06:41:48.295Z,100.00
2022-08-28T06:42:49.858Z,100.00
2022-08-28T06:43:51.376Z,100.00
2022-08-28T06:44:52.886Z,100.00
2022-08-28T06:45:58.424Z,100.00
2022-08-28T06:47:00.321Z,100.00
2022-08-28T06:48:02.385Z,100.00
2022-08-28T06:49:06.204Z,100.00
2022-08-28T06:50:08.146Z,100.00
2022-08-28T06:51:11.959Z,100.00
2022-08-28T06:52:13.497Z,100.00
2022-08-28T06:53:18.808Z,100.00
2022-08-28T06:54:23.233Z,100.00
2022-08-28T06:55:25.295Z,100.00
2022-08-28T06:56:27.223Z,100.00
2022-08-28T06:57:28.839Z,100.00
2022-08-28T06:58:31.084Z,97.59
2022-08-28T06:59:33.096Z,97.54
2022-08-28T07:00:36.094Z,93.71
2022-08-28T07:01:38.359Z,91.88
2022-08-28T07:02:40.013Z,90.66
2022-08-28T07:03:42.699Z,87.26
2022-08-28T07:04:45.672Z,84.98
2022-08-28T07:05:47.156Z,83.70
2022-08-28T07:06:54.159Z,80.96
2022-08-28T07:07:56.585Z,77.83
2022-08-28T07:08:58.165Z,76.37
2022-08-28T07:09:59.633Z,77.01
2022-08-28T07:11:19.013Z,75.77
2022-08-28T07:12:20.569Z,76.56
2022-08-28T07:13:23.262Z,79.29
2022-08-28T07:14:26.072Z,78.00
2022-08-28T07:15:28.436Z,77.97
2022-08-28T07:16:38.137Z,74.58
2022-08-28T07:17:39.926Z,73.78
2022-08-28T07:18:43.026Z,73.78
2022-08-28T07:19:44.609Z,72.03
2022-08-28T07:20:55.406Z,70.59
2022-08-28T07:21:56.927Z,71.71
2022-08-28T07:22:59.745Z,69.79
2022-08-28T07:24:03.484Z,67.21
2022-08-28T07:25:05.466Z,66.82
2022-08-28T07:26:10.016Z,65.32
2022-08-28T07:27:14.723Z,65.58
2022-08-28T07:28:19.994Z,64.94
2022-08-28T07:29:22.465Z,63.11
2022-08-28T07:30:24.001Z,61.60
2022-08-28T07:31:27.564Z,62.00
2022-08-28T07:32:29.506Z,61.68
2022-08-28T07:33:32.421Z,61.80
2022-08-28T07:34:39.122Z,61.42
2022-08-28T07:35:45.101Z,60.69
2022-08-28T07:36:47.427Z,61.35
2022-08-28T07:37:49.144Z,62.29
2022-08-28T07:38:50.801Z,63.46
2022-08-28T07:39:52.765Z,63.63
2022-08-28T07:40:55.389Z,64.02
2022-08-28T07:41:56.860Z,66.74
2022-08-28T07:43:17.614Z,67.28
2022-08-28T07:44:37.880Z,74.21
2022-08-28T07:45:39.490Z,73.84
2022-08-28T07:46:41.864Z,73.78
2022-08-28T07:47:43.438Z,75.87
2022-08-28T07:48:47.172Z,76.07
2022-08-28T07:49:48.727Z,78.43
2022-08-28T07:50:50.255Z,80.58
2022-08-28T07:51:54.168Z,80.81
2022-08-28T07:52:56.037Z,83.92
2022-08-28T07:53:57.919Z,84.54
2022-08-28T07:55:01.070Z,84.02
2022-08-28T07:56:03.137Z,84.79
2022-08-28T07:57:06.938Z,84.58
2022-08-28T07:58:08.691Z,81.82
2022-08-28T07:59:11.522Z,82.25
2022-08-28T08:00:15.616Z,82.36
2022-08-28T08:01:20.241Z,80.62
2022-08-28T08:02:22.090Z,79.57
2022-08-28T08:03:24.912Z,80.07
2022-08-28T08:04:26.654Z,79.73
2022-08-28T08:05:28.218Z,78.96
2022-08-28T08:06:34.235Z,79.15
2022-08-28T08:07:39.755Z,79.68
2022-08-28T08:08:45.281Z,80.64
2022-08-28T08:09:46.826Z,77.82
2022-08-28T08:11:07.446Z,77.23
2022-08-28T08:12:14.610Z,74.54
2022-08-28T08:13:16.128Z,76.03
2022-08-28T08:14:17.810Z,75.60
2022-08-28T08:15:19.405Z,72.38
2022-08-28T08:16:24.150Z,73.12
2022-08-28T08:17:25.775Z,73.28
2022-08-28T08:18:27.292Z,71.72
2022-08-28T08:19:32.267Z,70.39
2022-08-28T08:20:33.837Z,71.66
2022-08-28T08:21:36.634Z,71.64
2022-08-28T08:22:38.188Z,72.29
2022-08-28T08:23:41.552Z,71.16
2022-08-28T08:24:43.157Z,68.97
2022-08-28T08:25:55.691Z,67.68
2022-08-28T08:27:00.859Z,69.97
2022-08-28T08:28:05.923Z,66.53
2022-08-28T08:29:07.512Z,64.85
2022-08-28T08:30:10.026Z,63.90
2022-08-28T08:31:20.766Z,62.80
2022-08-28T08:32:22.319Z,62.55
2022-08-28T08:33:23.842Z,63.71
2022-08-28T08:34:25.813Z,63.47
2022-08-28T08:35:27.620Z,65.12
2022-08-28T08:36:34.055Z,63.52
2022-08-28T08:37:35.600Z,63.96
2022-08-28T08:38:37.960Z,64.08
2022-08-28T08:39:41.654Z,62.94
2022-08-28T08:40:43.312Z,61.79
2022-08-28T08:41:51.716Z,61.49
2022-08-28T08:42:56.995Z,63.23
2022-08-28T08:44:06.190Z,63.51
2022-08-28T08:45:13.872Z,64.83
2022-08-28T08:46:15.678Z,65.28
2022-08-28T08:47:38.898Z,63.22
2022-08-28T08:48:44.917Z,62.50
2022-08-28T08:49:54.972Z,63.83
2022-08-28T08:51:05.358Z,64.13
2022-08-28T08:52:29.089Z,64.83
2022-08-28T08:53:47.860Z,66.54
2022-08-28T08:55:37.517Z,66.18
2022-08-28T08:56:41.372Z,66.56
2022-08-28T08:57:46.134Z,65.36
2022-08-28T08:58:54.406Z,67.64
2022-08-28T08:59:56.076Z,65.81
2022-08-28T09:01:20.186Z,68.03
2022-08-28T09:02:31.373Z,67.89
2022-08-28T09:04:24.779Z,67.79
2022-08-28T09:05:55.774Z,68.18
2022-08-28T09:07:07.966Z,68.44
2022-08-28T09:08:18.617Z,65.74
2022-08-28T09:09:35.340Z,64.97
2022-08-28T09:10:48.268Z,65.48
2022-08-28T09:12:03.666Z,67.08
2022-08-28T09:13:32.160Z,67.99
2022-08-28T09:14:52.488Z,69.63
2022-08-28T09:15:54.270Z,72.24
2022-08-28T09:16:56.593Z,72.73
2022-08-28T09:18:27.212Z,73.20
2022-08-28T09:19:29.660Z,75.33
2022-08-28T09:20:33.173Z,77.07
2022-08-28T09:21:41.340Z,77.67
2022-08-28T09:22:47.035Z,77.09
2022-08-28T09:23:48.616Z,76.72
2022-08-28T09:24:51.610Z,78.51
2022-08-28T09:25:59.715Z,77.86
2022-08-28T09:27:04.029Z,77.21
2022-08-28T09:28:08.453Z,78.74
2022-08-28T09:29:18.202Z,76.94
2022-08-28T09:30:31.408Z,77.49
2022-08-28T09:31:38.760Z,77.77
2022-08-28T09:32:57.863Z,77.99
2022-08-28T09:34:17.208Z,74.05
2022-08-28T09:35:27.877Z,74.38
2022-08-28T09:36:34.725Z,73.75
2022-08-28T09:37:37.184Z,73.48
2022-08-28T09:38:41.406Z,73.35
2022-08-28T09:39:45.629Z,72.17
2022-08-28T09:41:16.767Z,72.27
2022-08-28T09:42:41.439Z,73.24
2022-08-28T09:43:45.608Z,72.12
2022-08-28T09:45:09.119Z,70.94
2022-08-28T09:46:32.539Z,70.62
2022-08-28T09:47:34.068Z,70.67
2022-08-28T09:48:39.839Z,69.31
2022-08-28T09:49:41.362Z,70.20
2022-08-28T09:50:43.438Z,69.04
2022-08-28T09:51:45.092Z,69.50
2022-08-28T09:52:47.291Z,70.61
2022-08-28T09:53:51.807Z,69.31
2022-08-28T09:54:54.427Z,68.69
2022-08-28T09:55:59.075Z,62.33
2022-08-28T09:57:03.336Z,61.98
2022-08-28T09:58:06.070Z,60.47
2022-08-28T09:59:10.606Z,59.58
2022-08-28T10:00:12.813Z,55.63
2022-08-28T10:01:34.287Z,53.04
2022-08-28T10:02:43.093Z,52.73
2022-08-28T10:04:00.061Z,50.90
2022-08-28T10:05:10.392Z,50.88
2022-08-28T10:06:20.974Z,53.85
2022-08-28T10:07:50.967Z,54.31
2022-08-28T10:09:08.064Z,57.46
2022-08-28T10:10:31.772Z,57.75
2022-08-28T10:11:55.656Z,59.62
2022-08-28T10:13:14.313Z,61.84
2022-08-28T10:14:39.808Z,61.98
2022-08-28T10:15:43.337Z,62.59
2022-08-28T10:16:56.741Z,61.83
2022-08-28T10:18:07.314Z,59.64
2022-08-28T10:19:36.666Z,58.97
2022-08-28T10:20:53.448Z,58.33
2022-08-28T10:22:37.509Z,56.69
2022-08-28T10:23:42.130Z,55.85
2022-08-28T10:24:58.994Z,58.17
2022-08-28T10:26:25.158Z,59.71
2022-08-28T10:27:53.932Z,61.00
2022-08-28T10:29:07.825Z,62.32
2022-08-28T10:30:15.016Z,63.41
2022-08-28T10:31:31.550Z,65.87
2022-08-28T10:32:52.423Z,67.00
2022-08-28T10:33:59.905Z,65.51
2022-08-28T10:35:11.922Z,64.86
2022-08-28T10:36:34.032Z,66.20
2022-08-28T10:38:04.628Z,60.39
2022-08-28T10:39:39.769Z,61.04
2022-08-28T10:41:06.017Z,59.61
2022-08-28T10:42:07.704Z,57.01
2022-08-28T10:43:29.038Z,55.40
2022-08-28T10:44:36.651Z,54.13
2022-08-28T10:45:41.244Z,51.55
2022-08-28T10:46:49.060Z,49.44
2022-08-28T10:48:19.868Z,50.86
2022-08-28T10:49:28.297Z,52.13
2022-08-28T10:50:42.766Z,49.30
2022-08-28T10:51:51.754Z,49.16
2022-08-28T10:53:03.029Z,48.06
2022-08-28T10:54:15.476Z,46.96
2022-08-28T10:55:23.660Z,45.45
2022-08-28T10:56:35.868Z,46.00
2022-08-28T10:58:02.566Z,46.73
2022-08-28T10:59:04.177Z,45.76
2022-08-28T11:00:18.466Z,43.85
2022-08-28T11:01:33.145Z,45.21
2022-08-28T11:02:37.151Z,44.74
2022-08-28T11:03:46.699Z,43.38
2022-08-28T11:04:49.377Z,42.78
2022-08-28T11:06:01.735Z,45.05
2022-08-28T11:07:10.079Z,42.00
2022-08-28T11:08:23.429Z,42.00
2022-08-28T11:09:33.132Z,44.12
2022-08-28T11:10:37.637Z,42.27
2022-08-28T11:11:46.538Z,42.38
2022-08-28T11:12:51.741Z,42.34
2022-08-28T11:13:59.660Z,42.74
2022-08-28T11:15:36.380Z,43.96
2022-08-28T11:16:44.046Z,45.34
2022-08-28T11:17:45.700Z,45.87
2022-08-28T11:19:08.727Z,45.08
2022-08-28T11:20:24.904Z,43.17
2022-08-28T11:21:40.557Z,44.02
2022-08-28T11:23:10.467Z,43.26
2022-08-28T11:24:35.108Z,42.63
2022-08-28T11:26:02.842Z,43.08
2022-08-28T11:27:20.019Z,45.58
2022-08-28T11:28:24.428Z,44.84
2022-08-28T11:30:01.318Z,46.61
2022-08-28T11:31:05.972Z,44.83
2022-08-28T11:32:28.727Z,43.83
2022-08-28T11:33:35.474Z,45.17
2022-08-28T11:34:56.954Z,45.01
2022-08-28T11:35:58.721Z,44.96
2022-08-28T11:37:02.619Z,44.87
2022-08-28T11:38:04.486Z,47.27
2022-08-28T11:39:20.152Z,46.31
2022-08-28T11:40:31.674Z,46.86
2022-08-28T11:41:36.544Z,47.39
2022-08-28T11:42:38.162Z,48.53
2022-08-28T11:43:42.395Z,48.74
2022-08-28T11:44:45.918Z,48.51
2022-08-28T11:45:47.938Z,48.45
2022-08-28T11:46:51.961Z,48.12
2022-08-28T11:47:56.469Z,48.54
2022-08-28T11:49:01.187Z,48.81
2022-08-28T11:50:16.182Z,47.86
2022-08-28T11:51:17.645Z,48.70
2022-08-28T11:52:44.041Z,49.72
2022-08-28T11:54:12.756Z,47.55
2022-08-28T11:55:29.981Z,48.33
2022-08-28T11:56:41.121Z,48.34
2022-08-28T11:59:07.933Z,49.98
2022-08-28T12:00:44.869Z,47.88
2022-08-28T12:01:46.491Z,47.56
2022-08-28T12:02:52.419Z,45.09
2022-08-28T12:04:01.945Z,45.31
2022-08-28T12:05:31.381Z,45.29
2022-08-28T12:06:44.964Z,43.62
2022-08-28T12:07:49.596Z,43.53
2022-08-28T12:09:01.894Z,44.30
2022-08-28T12:10:24.330Z,43.48
2022-08-28T12:11:41.602Z,43.47
2022-08-28T12:12:46.138Z,44.01
2022-08-28T12:13:51.568Z,45.07
2022-08-28T12:14:55.893Z,47.01
2022-08-28T12:16:06.862Z,46.88
2022-08-28T12:17:31.221Z,46.42
2022-08-28T12:18:39.544Z,45.71
2022-08-28T12:20:31.071Z,46.67
2022-08-28T12:21:38.933Z,48.08
2022-08-28T12:22:53.194Z,47.10
2022-08-28T12:24:21.859Z,45.92
2022-08-28T12:25:32.149Z,46.04
2022-08-28T12:26:38.556Z,45.95
2022-08-28T12:27:41.105Z,44.57
2022-08-28T12:28:51.432Z,44.82
2022-08-28T12:29:55.325Z,44.08
2022-08-28T12:31:06.234Z,44.91
2022-08-28T12:32:22.721Z,45.70
2022-08-28T12:33:37.667Z,48.16
2022-08-28T12:34:39.375Z,46.88
2022-08-28T12:35:43.732Z,46.20
2022-08-28T12:36:48.977Z,47.52
2022-08-28T12:37:53.793Z,44.54
2022-08-28T12:39:00.380Z,44.51
2022-08-28T12:40:11.848Z,45.30
2022-08-28T12:41:17.120Z,44.68
2022-08-28T12:42:26.697Z,46.37
2022-08-28T12:43:46.570Z,44.22
2022-08-28T12:44:48.643Z,44.44
2022-08-28T12:46:19.787Z,41.92
2022-08-28T12:47:23.622Z,42.58
2022-08-28T12:48:47.382Z,42.07
2022-08-28T12:49:49.078Z,41.31
2022-08-28T12:51:04.582Z,41.32
2022-08-28T12:52:10.793Z,41.50
2022-08-28T12:53:18.433Z,39.77
2022-08-28T12:54:19.996Z,41.58
2022-08-28T12:55:24.605Z,41.26
2022-08-28T12:56:33.975Z,40.87
2022-08-28T12:57:35.515Z,40.36
2022-08-28T12:58:39.835Z,41.12
2022-08-28T12:59:44.232Z,42.21
2022-08-28T13:00:57.035Z,43.59
2022-08-28T13:02:10.354Z,43.32
2022-08-28T13:03:12.320Z,45.65
2022-08-28T13:04:32.664Z,46.85
2022-08-28T13:05:40.250Z,46.85
2022-08-28T13:06:41.869Z,47.77
2022-08-28T13:07:51.893Z,46.24
2022-08-28T13:08:59.365Z,47.28
2022-08-28T13:10:22.270Z,47.84
2022-08-28T13:11:23.815Z,47.71
2022-08-28T13:12:55.346Z,48.58
2022-08-28T13:13:55.556Z,48.82
2022-08-28T13:14:57.444Z,47.24
2022-08-28T13:16:00.843Z,47.01
2022-08-28T13:17:02.438Z,46.68
2022-08-28T13:18:04.478Z,48.47
2022-08-28T13:19:06.606Z,47.71
2022-08-28T13:20:08.757Z,49.53
2022-08-28T13:21:13.506Z,47.30
2022-08-28T13:22:38.547Z,51.46
2022-08-28T13:23:41.177Z,49.28
2022-08-28T13:24:45.829Z,48.45
2022-08-28T13:25:47.430Z,48.77
2022-08-28T13:27:07.363Z,49.06
2022-08-28T13:28:14.923Z,50.02
2022-08-28T13:29:22.947Z,49.21
2022-08-28T13:30:33.411Z,47.49
2022-08-28T13:31:39.045Z,47.98
2022-08-28T13:32:40.873Z,49.18
2022-08-28T13:33:42.467Z,46.76
2022-08-28T13:35:13.551Z,46.40
2022-08-28T13:36:24.777Z,44.90
2022-08-28T13:37:51.374Z,44.27
2022-08-28T13:38:52.963Z,45.08
2022-08-28T13:39:54.472Z,43.78
2022-08-28T13:41:02.130Z,42.45
2022-08-28T13:42:16.161Z,41.74
2022-08-28T13:43:18.213Z,40.94
2022-08-28T13:44:33.619Z,40.53
2022-08-28T13:45:43.109Z,39.64
2022-08-28T13:46:44.881Z,39.52
2022-08-28T13:47:46.399Z,39.92
2022-08-28T13:48:47.909Z,40.44
2022-08-28T13:49:49.515Z,40.52
2022-08-28T13:50:56.736Z,39.09
2022-08-28T13:52:00.489Z,38.62
2022-08-28T13:53:03.094Z,40.74
2022-08-28T13:54:04.679Z,39.54
2022-08-28T13:55:09.708Z,38.66
2022-08-28T13:56:12.399Z,39.04
2022-08-28T13:57:15.334Z,39.16
2022-08-28T13:58:17.536Z,38.51
2022-08-28T13:59:19.920Z,38.50
2022-08-28T14:00:21.635Z,40.21